Time;durP1;ratioP1;P1;durP2;ratioP2;P2;SDS_P1;SDS_P2;PMS_P1;PMS_P2;Temp;Humidity;BMP_temperature;BMP_pressure;BME280_temperature;BME280_humidity;BME280_pressure;Samples;Min_cycle;Max_cycle;Signal;HPM_P1;HPM_P2
2022/05/03 00:02:20;;;;;;;11.60;8.20;;;14.60;56.40;;;;;;5135410;27;20839;-95
2022/05/03 00:04:58;;;;;;;16.63;8.90;;;14.50;56.00;;;;;;5130268;27;20234;-95
2022/05/03 00:07:29;;;;;;;12.07;8.13;;;14.50;56.20;;;;;;5134357;27;20207;-95
2022/05/03 00:10:05;;;;;;;16.87;8.63;;;14.50;56.00;;;;;;5136415;27;20208;-95
2022/05/03 00:12:35;;;;;;;13.83;9.30;;;14.50;56.20;;;;;;5120005;27;20204;-94
2022/05/03 00:15:05;;;;;;;20.30;9.60;;;14.50;56.10;;;;;;5122080;27;20215;-94
2022/05/03 00:17:42;;;;;;;14.27;9.50;;;14.50;56.20;;;;;;5135830;27;20515;-95
2022/05/03 00:20:10;;;;;;;12.83;9.13;;;14.50;56.40;;;;;;5135293;27;20244;-95
2022/05/03 00:22:40;;;;;;;15.30;10.07;;;14.50;56.20;;;;;;5134734;27;20203;-95
2022/05/03 00:25:34;;;;;;;15.63;9.87;;;14.40;56.40;;;;;;5135626;27;20287;-95
2022/05/03 00:28:08;;;;;;;14.50;9.57;;;14.40;56.70;;;;;;5135272;27;20224;-95
2022/05/03 00:30:36;;;;;;;15.53;10.17;;;14.40;56.60;;;;;;5136221;27;20280;-95
2022/05/03 00:33:05;;;;;;;16.20;10.10;;;14.30;56.30;;;;;;5145118;27;20214;-96
2022/05/03 00:35:33;;;;;;;16.63;9.67;;;14.30;56.40;;;;;;5148642;27;20241;-95
2022/05/03 00:38:03;;;;;;;19.27;10.47;;;14.30;56.40;;;;;;5142394;27;20257;-96
2022/05/03 00:40:34;;;;;;;21.67;10.93;;;14.20;56.40;;;;;;5135168;27;20214;-96
2022/05/03 00:43:12;;;;;;;15.43;9.73;;;14.20;56.50;;;;;;5136166;27;20226;-94
2022/05/03 00:45:49;;;;;;;15.87;9.57;;;14.10;56.50;;;;;;5131977;27;20665;-95
2022/05/03 00:48:34;;;;;;;12.63;8.77;;;14.10;56.60;;;;;;5135786;27;20236;-95
2022/05/03 00:51:12;;;;;;;16.03;9.40;;;14.10;56.80;;;;;;5120838;27;20229;-94
2022/05/03 00:53:51;;;;;;;17.73;9.13;;;14.00;56.60;;;;;;5135676;27;20192;-94
2022/05/03 00:56:31;;;;;;;15.80;9.70;;;14.00;56.80;;;;;;5132641;27;20321;-95
2022/05/03 00:59:09;;;;;;;24.87;11.17;;;13.90;57.00;;;;;;5120423;27;20205;-95
2022/05/03 01:02:13;;;;;;;;;;;;;;;;;;;;;
2022/05/03 01:04:51;;;;;;;15.47;9.80;;;13.90;57.10;;;;;;5123444;28;20293;-94
2022/05/03 01:07:28;;;;;;;20.83;10.73;;;13.80;56.60;;;;;;5120329;27;20244;-95
2022/05/03 01:10:05;;;;;;;14.77;10.23;;;13.80;56.90;;;;;;5115360;28;20727;-95
2022/05/03 01:12:49;;;;;;;15.80;9.33;;;13.80;57.20;;;;;;5114293;28;20209;-95
2022/05/03 01:15:21;;;;;;;13.60;9.73;;;13.80;56.60;;;;;;5114199;28;20219;-95
2022/05/03 01:18:43;;;;;;;21.67;10.93;;;13.80;56.70;;;;;;5130397;27;20201;-94
2022/05/03 01:21:16;;;;;;;16.17;10.03;;;13.80;57.20;;;;;;5113429;28;20286;-95
2022/05/03 01:24:18;;;;;;;19.50;10.27;;;13.70;56.80;;;;;;5132286;27;20203;-95
2022/05/03 01:27:29;;;;;;;20.90;10.73;;;13.70;57.10;;;;;;5131729;27;20281;-95
2022/05/03 01:29:59;;;;;;;13.43;9.57;;;13.70;57.20;;;;;;5131526;27;20279;-95
2022/05/03 01:35:59;;;;;;;23.70;11.23;;;13.60;57.80;;;;;;5049093;28;20710;-95
2022/05/03 01:38:35;;;;;;;23.70;11.77;;;13.60;57.00;;;;;;5045840;28;20295;-95
2022/05/03 01:41:19;;;;;;;23.10;11.57;;;13.50;57.00;;;;;;5096930;27;20726;-96
2022/05/03 01:44:29;;;;;;;19.43;11.33;;;13.50;57.30;;;;;;5130121;27;20215;-95
2022/05/03 01:47:07;;;;;;;18.43;11.50;;;13.50;57.60;;;;;;5096115;28;20686;-94
2022/05/03 01:52:55;;;;;;;25.63;13.70;;;13.40;57.50;;;;;;5110829;28;20244;-95
2022/05/03 01:55:47;;;;;;;21.17;12.27;;;13.40;57.90;;;;;;5127150;27;20227;-95
2022/05/03 01:58:21;;;;;;;21.80;11.93;;;13.40;58.00;;;;;;5123800;27;20209;-94
2022/05/03 02:01:03;;;;;;;18.53;11.80;;;13.40;58.00;;;;;;5113071;28;20208;-95
2022/05/03 02:03:45;;;;;;;24.60;13.17;;;13.30;58.30;;;;;;5125380;27;20278;-95
2022/05/03 02:06:15;;;;;;;19.70;12.83;;;13.30;58.20;;;;;;5132899;27;20267;-96
2022/05/03 02:09:05;;;;;;;19.37;12.83;;;13.30;58.20;;;;;;5118884;27;20739;-95
2022/05/03 02:11:49;;;;;;;20.03;12.63;;;13.30;58.40;;;;;;5125732;27;20195;-95
2022/05/03 02:17:34;;;;;;;19.40;12.20;;;13.30;58.70;;;;;;5131387;28;20217;-94
2022/05/03 02:20:17;;;;;;;22.17;12.70;;;13.30;58.70;;;;;;5124438;28;20200;-95
2022/05/03 02:23:19;;;;;;;21.27;13.50;;;13.30;58.30;;;;;;5112355;28;20293;-95
2022/05/03 02:26:07;;;;;;;22.17;13.53;;;13.30;58.80;;;;;;5090104;28;20943;-94
2022/05/03 02:28:42;;;;;;;18.43;12.73;;;13.30;58.20;;;;;;5131337;28;20211;-95
2022/05/03 02:31:18;;;;;;;21.57;12.90;;;13.30;58.50;;;;;;5131868;28;20204;-94
2022/05/03 02:33:49;;;;;;;20.13;13.10;;;13.30;58.90;;;;;;5134113;28;20297;-94
2022/05/03 02:36:23;;;;;;;22.03;13.70;;;13.30;58.90;;;;;;5141226;28;20218;-95
2022/05/03 02:39:00;;;;;;;21.90;14.37;;;13.30;58.90;;;;;;5141080;28;20197;-95
2022/05/03 02:41:34;;;;;;;19.87;12.33;;;13.30;58.90;;;;;;5133783;28;20201;-95
2022/05/03 02:44:03;;;;;;;26.67;15.03;;;13.40;59.00;;;;;;5132878;28;20231;-94
2022/05/03 02:46:46;;;;;;;26.03;14.30;;;13.40;59.00;;;;;;5132480;28;20189;-94
2022/05/03 02:49:19;;;;;;;24.80;14.43;;;13.40;59.10;;;;;;5132955;28;20262;-94
2022/05/03 02:51:53;;;;;;;19.23;12.63;;;13.40;59.00;;;;;;5133470;28;20830;-95
2022/05/03 02:54:33;;;;;;;25.30;14.50;;;13.40;58.60;;;;;;5133894;27;20227;-95
2022/05/03 02:57:13;;;;;;;24.97;14.53;;;13.40;59.00;;;;;;5130428;27;20283;-94
2022/05/03 03:05:42;;;;;;;19.60;13.00;;;13.40;59.60;;;;;;5113834;27;20667;-94
2022/05/03 03:08:13;;;;;;;23.43;14.57;;;13.50;59.50;;;;;;5115622;27;20215;-94
2022/05/03 03:10:53;;;;;;;23.67;15.23;;;13.50;59.60;;;;;;5123413;27;20659;-94
2022/05/03 03:13:42;;;;;;;22.07;14.33;;;13.50;60.00;;;;;;5133885;27;20207;-94
2022/05/03 03:16:15;;;;;;;22.57;14.37;;;13.50;60.40;;;;;;5136568;27;20316;-95
2022/05/03 03:18:47;;;;;;;23.93;15.17;;;13.50;59.70;;;;;;5136374;27;20293;-95
2022/05/03 03:24:28;;;;;;;22.13;13.60;;;13.60;60.20;;;;;;5120460;28;20196;-95
2022/05/03 03:26:57;;;;;;;22.53;14.07;;;13.60;59.80;;;;;;5133574;27;20211;-95
2022/05/03 03:29:39;;;;;;;23.23;14.50;;;13.60;59.80;;;;;;5118692;28;20295;-95
2022/05/03 03:32:08;;;;;;;22.90;14.27;;;13.60;60.90;;;;;;5130506;27;20263;-95
2022/05/03 03:34:36;;;;;;;21.87;13.77;;;13.70;60.30;;;;;;5138741;27;20204;-96
2022/05/03 03:37:08;;;;;;;20.53;13.57;;;13.70;60.20;;;;;;5142083;27;20226;-96
2022/05/03 03:40:00;;;;;;;23.60;14.53;;;13.70;60.20;;;;;;5139990;27;20203;-96
2022/05/03 03:42:31;;;;;;;23.40;13.90;;;13.80;61.20;;;;;;5138733;27;20200;-95
2022/05/03 03:45:01;;;;;;;26.23;14.70;;;13.80;60.40;;;;;;5141615;27;20279;-96
2022/05/03 03:47:31;;;;;;;27.30;16.33;;;13.80;60.50;;;;;;5134949;27;20203;-96
2022/05/03 03:50:00;;;;;;;20.63;13.17;;;13.80;61.30;;;;;;5120414;27;20258;-95
2022/05/03 03:52:28;;;;;;;26.43;15.97;;;13.90;60.70;;;;;;5138411;27;20207;-96
2022/05/03 03:54:55;;;;;;;22.97;14.03;;;13.90;60.50;;;;;;5138362;27;20203;-94
2022/05/03 03:57:31;;;;;;;23.37;15.27;;;13.90;60.50;;;;;;5120977;27;20238;-96
2022/05/03 04:00:00;;;;;;;27.10;16.40;;;13.90;61.30;;;;;;5129186;27;20196;-95
2022/05/03 04:03:18;;;;;;;22.43;15.00;;;13.90;60.80;;;;;;5139724;27;20207;-94
2022/05/03 04:06:18;;;;;;;31.70;16.17;;;14.00;61.90;;;;;;5120778;27;20205;-94
2022/05/03 04:08:45;;;;;;;24.60;14.70;;;14.00;61.60;;;;;;5137675;27;20212;-95
2022/05/03 04:11:17;;;;;;;24.63;14.37;;;14.00;60.80;;;;;;5138685;27;20208;-95
2022/05/03 04:13:49;;;;;;;25.00;15.37;;;14.00;61.40;;;;;;5142094;27;20203;-94
2022/05/03 04:16:16;;;;;;;27.60;15.20;;;14.00;61.10;;;;;;5145405;27;20583;-94
2022/05/03 04:18:46;;;;;;;21.40;14.20;;;14.00;60.90;;;;;;5139727;27;20208;-94
2022/05/03 04:21:15;;;;;;;24.10;15.57;;;14.10;61.30;;;;;;5127621;28;20196;-94
2022/05/03 04:23:44;;;;;;;21.60;14.63;;;14.10;61.60;;;;;;5128905;27;20624;-94
2022/05/03 04:26:12;;;;;;;22.00;14.17;;;14.10;61.60;;;;;;5142161;27;20201;-94
2022/05/03 04:28:40;;;;;;;24.57;14.17;;;14.10;61.50;;;;;;5138241;27;20205;-94
2022/05/03 04:31:10;;;;;;;20.23;13.47;;;14.10;61.60;;;;;;5137342;27;20201;-94
2022/05/03 04:33:42;;;;;;;28.80;15.73;;;14.20;62.30;;;;;;5136206;27;20208;-94
2022/05/03 04:36:15;;;;;;;20.50;14.37;;;14.20;62.40;;;;;;5136688;27;20235;-94
2022/05/03 04:38:42;;;;;;;26.33;16.20;;;14.20;62.40;;;;;;5140369;27;20583;-94
2022/05/03 04:41:37;;;;;;;26.43;15.50;;;14.30;62.30;;;;;;5142144;27;20205;-95
2022/05/03 04:47:04;;;;;;;25.00;15.67;;;14.30;63.40;;;;;;5096169;27;20312;-94
2022/05/03 04:49:35;;;;;;;22.47;15.07;;;14.30;62.70;;;;;;5119781;27;20221;-95
2022/05/03 04:52:09;;;;;;;24.50;15.63;;;14.30;63.10;;;;;;5117567;28;20250;-95
2022/05/03 04:54:36;;;;;;;24.60;14.83;;;14.30;63.40;;;;;;5138466;27;20238;-95
2022/05/03 04:57:06;;;;;;;25.07;16.50;;;14.40;63.10;;;;;;5135842;27;20236;-95
2022/05/03 04:59:33;;;;;;;22.87;15.83;;;14.40;63.00;;;;;;5134968;27;20204;-96
2022/05/03 05:02:00;;;;;;;24.00;16.00;;;14.40;63.10;;;;;;5134478;27;20645;-95
2022/05/03 05:04:29;;;;;;;24.50;15.23;;;14.40;63.30;;;;;;5134735;27;20238;-96
2022/05/03 05:06:56;;;;;;;21.03;14.53;;;14.50;63.60;;;;;;5133103;27;20610;-95
2022/05/03 05:09:26;;;;;;;19.17;14.30;;;14.50;63.50;;;;;;5133888;27;20250;-94
2022/05/03 05:11:57;;;;;;;23.97;14.67;;;14.50;64.00;;;;;;5127462;27;20205;-94
2022/05/03 05:14:25;;;;;;;24.83;15.80;;;14.60;64.10;;;;;;5135159;27;20204;-95
2022/05/03 05:16:54;;;;;;;19.70;14.77;;;14.60;64.00;;;;;;5134240;27;20284;-95
2022/05/03 05:19:21;;;;;;;22.10;15.73;;;14.60;64.10;;;;;;5134362;27;20241;-95
2022/05/03 05:21:53;;;;;;;21.87;15.43;;;14.60;63.80;;;;;;5136619;27;20269;-95
2022/05/03 05:24:20;;;;;;;27.33;16.97;;;14.70;64.60;;;;;;5126356;27;20584;-96
2022/05/03 05:26:47;;;;;;;23.80;15.83;;;14.70;64.10;;;;;;5124103;27;20689;-95
2022/05/03 05:29:14;;;;;;;23.57;16.00;;;14.70;64.10;;;;;;5134421;27;20205;-95
2022/05/03 05:34:26;;;;;;;32.73;18.60;;;14.80;64.80;;;;;;5128586;27;20676;-95
2022/05/03 05:36:55;;;;;;;27.20;17.47;;;14.80;64.40;;;;;;5133047;27;20227;-94
2022/05/03 05:39:48;;;;;;;23.33;16.57;;;14.80;64.70;;;;;;5113427;28;20206;-94
2022/05/03 05:42:16;;;;;;;22.87;16.40;;;14.80;65.30;;;;;;5107711;27;20264;-95
2022/05/03 05:44:43;;;;;;;24.07;16.77;;;14.90;64.80;;;;;;5120315;27;20295;-95
2022/05/03 05:47:10;;;;;;;28.47;16.80;;;14.90;64.80;;;;;;5133190;27;20207;-94
2022/05/03 05:49:38;;;;;;;25.83;16.77;;;14.90;64.90;;;;;;5113050;28;20263;-94
2022/05/03 05:54:54;;;;;;;25.83;17.17;;;15.00;65.20;;;;;;5128926;27;20724;-94
2022/05/03 05:57:22;;;;;;;23.70;16.30;;;15.00;65.00;;;;;;5117082;27;20234;-93
2022/05/03 05:59:49;;;;;;;25.33;15.97;;;15.00;65.10;;;;;;5127839;27;20197;-94
2022/05/03 06:02:22;;;;;;;21.53;15.63;;;15.00;64.90;;;;;;5132982;27;20633;-94
2022/05/03 06:04:52;;;;;;;25.90;16.20;;;15.00;65.20;;;;;;5132586;27;20198;-91
2022/05/03 06:10:39;;;;;;;25.30;16.03;;;15.10;65.30;;;;;;5122151;27;20771;-93
2022/05/03 06:13:13;;;;;;;23.73;16.00;;;15.10;64.50;;;;;;5134321;27;20194;-95
2022/05/03 06:15:42;;;;;;;23.53;15.63;;;15.10;64.50;;;;;;5122744;27;20209;-94
2022/05/03 06:18:10;;;;;;;22.83;16.03;;;15.20;64.60;;;;;;5115991;28;20248;-93
2022/05/03 06:20:43;;;;;;;23.27;15.50;;;15.20;64.50;;;;;;5125450;28;20210;-95
2022/05/03 06:23:12;;;;;;;22.33;15.63;;;15.20;65.00;;;;;;5125227;28;20225;-95
2022/05/03 06:26:06;;;;;;;24.73;15.53;;;15.30;64.60;;;;;;5113376;28;20233;-94
2022/05/03 06:28:33;;;;;;;21.20;14.17;;;15.40;64.90;;;;;;5132924;27;20209;-92
2022/05/03 06:31:02;;;;;;;20.37;13.93;;;15.40;63.90;;;;;;5135320;27;20618;-92
2022/05/03 06:33:31;;;;;;;21.67;14.57;;;15.40;63.80;;;;;;5133290;27;20201;-93
2022/05/03 06:36:05;;;;;;;24.13;15.97;;;15.40;63.60;;;;;;5116843;27;20228;-92
2022/05/03 06:38:44;;;;;;;42.97;17.17;;;15.40;63.70;;;;;;5115631;28;20209;-95
2022/05/03 06:41:32;;;;;;;24.37;14.13;;;15.50;63.60;;;;;;5117781;27;20287;-94
2022/05/03 06:44:02;;;;;;;22.97;14.30;;;15.50;63.60;;;;;;5133540;27;20231;-94
2022/05/03 06:46:38;;;;;;;34.40;16.20;;;15.60;63.20;;;;;;5119916;28;20261;-94
2022/05/03 06:49:06;;;;;;;21.20;13.63;;;15.60;63.00;;;;;;5128951;28;20190;-95
2022/05/03 06:54:15;;;;;;;22.27;15.40;;;15.70;62.50;;;;;;5122645;27;20660;-93
2022/05/03 06:56:43;;;;;;;57.10;18.30;;;15.70;62.40;;;;;;5136588;27;20209;-91
2022/05/03 06:59:11;;;;;;;27.33;14.87;;;15.70;62.30;;;;;;5136687;27;20193;-93
2022/05/03 07:01:38;;;;;;;27.97;16.43;;;15.80;62.20;;;;;;5138510;27;20662;-92
2022/05/03 07:04:06;;;;;;;24.40;14.47;;;15.80;61.90;;;;;;5137140;27;20262;-95
2022/05/03 07:06:33;;;;;;;25.33;15.93;;;15.80;61.90;;;;;;5134764;27;20241;-95
2022/05/03 07:09:01;;;;;;;24.33;15.30;;;15.90;62.00;;;;;;5133642;27;20728;-95
2022/05/03 07:11:34;;;;;;;23.87;16.03;;;15.90;61.80;;;;;;5134885;27;20668;-94
2022/05/03 07:14:03;;;;;;;25.90;15.67;;;15.90;61.60;;;;;;5125645;27;20233;-94
2022/05/03 07:16:33;;;;;;;28.43;16.63;;;16.00;61.50;;;;;;5113935;28;20248;-95
2022/05/03 07:24:36;;;;;;;29.03;15.97;;;16.10;61.50;;;;;;5129121;27;20618;-95
2022/05/03 07:27:13;;;;;;;28.60;15.10;;;16.10;61.30;;;;;;5136792;27;20253;-96
2022/05/03 07:29:45;;;;;;;24.90;16.23;;;16.20;61.70;;;;;;5136786;27;20206;-93
2022/05/03 07:32:13;;;;;;;19.63;14.67;;;16.20;61.60;;;;;;5135711;27;20309;-93
2022/05/03 07:34:46;;;;;;;21.23;15.57;;;16.20;61.60;;;;;;5135282;27;20301;-93
2022/05/03 07:37:14;;;;;;;22.20;15.57;;;16.30;61.70;;;;;;5133049;27;20238;-94
2022/05/03 07:39:42;;;;;;;24.43;15.57;;;16.40;61.50;;;;;;5134373;27;20294;-93
2022/05/03 07:42:09;;;;;;;18.97;14.40;;;16.40;61.30;;;;;;5137513;27;20201;-94
2022/05/03 07:44:36;;;;;;;25.33;15.10;;;16.40;60.80;;;;;;5134631;27;20261;-94
2022/05/03 07:47:07;;;;;;;18.90;12.00;;;16.50;60.40;;;;;;5135244;27;20269;-95
2022/05/03 07:49:34;;;;;;;21.57;13.57;;;16.60;59.90;;;;;;5136303;27;20307;-92
2022/05/03 07:52:02;;;;;;;24.50;14.97;;;16.70;59.80;;;;;;5135311;27;20204;-93
2022/05/03 07:54:29;;;;;;;17.50;13.93;;;16.70;59.80;;;;;;5135549;27;20297;-93
2022/05/03 07:56:56;;;;;;;25.40;15.47;;;16.80;59.70;;;;;;5135977;27;20275;-92
2022/05/03 07:59:33;;;;;;;28.33;17.67;;;16.80;59.80;;;;;;5134860;27;20227;-93
2022/05/03 08:02:01;;;;;;;27.47;18.77;;;16.90;60.00;;;;;;5133860;27;20210;-93
2022/05/03 08:04:31;;;;;;;25.80;19.77;;;16.90;59.90;;;;;;5133768;27;20210;-93
2022/05/03 08:06:58;;;;;;;26.20;17.87;;;17.00;60.30;;;;;;5133759;27;20236;-92
2022/05/03 08:09:26;;;;;;;30.30;20.23;;;17.00;59.90;;;;;;5132658;27;20656;-91
2022/05/03 08:11:54;;;;;;;27.07;19.37;;;17.10;60.20;;;;;;5134493;27;20530;-93
2022/05/03 08:14:22;;;;;;;28.50;21.37;;;17.10;60.50;;;;;;5133870;27;20222;-93
2022/05/03 08:16:50;;;;;;;24.77;19.33;;;17.20;60.70;;;;;;5135080;27;20208;-93
2022/05/03 08:19:17;;;;;;;28.10;21.20;;;17.20;61.00;;;;;;5135810;27;20226;-93
2022/05/03 08:21:45;;;;;;;27.30;21.30;;;17.30;61.50;;;;;;5134471;27;20199;-91
2022/05/03 08:24:13;;;;;;;25.27;18.67;;;17.30;61.40;;;;;;5133423;27;20302;-93
2022/05/03 08:27:11;;;;;;;30.67;22.40;;;17.30;61.20;;;;;;5134388;27;20232;-94
2022/05/03 08:29:38;;;;;;;29.33;21.17;;;17.40;61.40;;;;;;5134039;27;20235;-93
2022/05/03 08:32:06;;;;;;;28.80;20.77;;;17.50;61.60;;;;;;5133731;27;20228;-92
2022/05/03 08:34:34;;;;;;;27.03;19.43;;;17.50;61.60;;;;;;5134018;27;20238;-93
2022/05/03 08:42:36;;;;;;;30.33;20.77;;;17.60;61.00;;;;;;5135531;27;20267;-94
2022/05/03 08:45:03;;;;;;;25.90;19.67;;;17.60;61.30;;;;;;5113818;28;20212;-91
2022/05/03 08:47:31;;;;;;;31.13;20.90;;;17.60;61.30;;;;;;5112397;28;20300;-94
2022/05/03 08:50:03;;;;;;;31.00;20.73;;;17.70;61.30;;;;;;5111979;28;20216;-93
2022/05/03 08:52:38;;;;;;;27.90;19.47;;;17.70;61.50;;;;;;5112410;28;20269;-91
2022/05/03 08:55:11;;;;;;;25.43;19.97;;;17.80;61.60;;;;;;5113259;28;20204;-94
2022/05/03 08:57:39;;;;;;;33.60;21.47;;;17.80;61.40;;;;;;5114507;27;20236;-92
2022/05/03 09:00:07;;;;;;;25.03;19.47;;;17.90;61.20;;;;;;5134842;27;20196;-91
2022/05/03 09:02:34;;;;;;;30.03;20.27;;;18.00;61.10;;;;;;5133855;27;20261;-92
2022/05/03 09:05:01;;;;;;;26.80;20.03;;;18.10;61.10;;;;;;5134227;27;20204;-95
2022/05/03 09:07:29;;;;;;;28.10;19.90;;;18.20;61.00;;;;;;5134741;27;21009;-94
2022/05/03 09:10:16;;;;;;;30.90;20.27;;;18.30;61.00;;;;;;5134613;27;20609;-93
2022/05/03 09:12:50;;;;;;;43.77;22.00;;;18.40;60.70;;;;;;5131700;27;20228;-94
2022/05/03 09:15:30;;;;;;;55.13;23.57;;;18.60;60.80;;;;;;5134646;27;20708;-94
2022/05/03 09:17:57;;;;;;;35.97;22.30;;;18.70;60.40;;;;;;5131932;27;20225;-95
2022/05/03 09:26:10;;;;;;;26.50;17.93;;;19.10;60.20;;;;;;5133843;27;20272;-92
2022/05/03 09:28:46;;;;;;;22.67;17.50;;;19.30;59.90;;;;;;5130394;27;20197;-95
2022/05/03 09:31:13;;;;;;;24.27;17.63;;;19.50;59.60;;;;;;5113292;28;20559;-91
2022/05/03 09:33:43;;;;;;;20.47;16.53;;;19.70;59.50;;;;;;5112658;28;20198;-94
2022/05/03 09:36:12;;;;;;;22.87;17.07;;;19.80;59.00;;;;;;5112763;28;20642;-92
2022/05/03 09:38:50;;;;;;;24.63;17.57;;;20.00;58.70;;;;;;5111475;28;20234;-93
2022/05/03 09:44:06;;;;;;;21.70;15.70;;;20.30;58.70;;;;;;5111664;28;20241;-93
2022/05/03 09:46:53;;;;;;;21.97;17.47;;;20.50;57.90;;;;;;5112818;28;20213;-94
2022/05/03 09:49:34;;;;;;;21.10;17.10;;;20.70;57.30;;;;;;5112762;28;20569;-94
2022/05/03 09:52:03;;;;;;;19.23;15.57;;;20.80;57.40;;;;;;5113459;28;20208;-91
2022/05/03 09:54:46;;;;;;;24.37;17.77;;;21.00;57.30;;;;;;5113089;28;20286;-93
2022/05/03 09:57:22;;;;;;;26.07;17.40;;;21.00;56.80;;;;;;5114819;27;20200;-92
2022/05/03 09:59:51;;;;;;;22.70;16.10;;;21.20;56.40;;;;;;5132193;27;20226;-91
2022/05/03 10:02:22;;;;;;;17.23;14.00;;;21.20;56.60;;;;;;5133476;27;20286;-93
2022/05/03 10:04:52;;;;;;;24.30;16.80;;;21.30;56.70;;;;;;5132469;27;20228;-91
2022/05/03 10:07:26;;;;;;;20.10;16.20;;;21.40;56.10;;;;;;5133022;27;20246;-94
2022/05/03 10:09:56;;;;;;;21.33;16.73;;;21.60;55.90;;;;;;5133032;27;20630;-92
2022/05/03 10:12:25;;;;;;;28.20;16.67;;;21.70;55.50;;;;;;5129662;28;20225;-95
2022/05/03 10:14:53;;;;;;;25.90;15.43;;;21.80;55.50;;;;;;5131900;27;20191;-92
2022/05/03 10:20:39;;;;;;;16.43;13.33;;;21.90;55.10;;;;;;5133315;28;20646;-94
2022/05/03 10:23:20;;;;;;;19.00;12.80;;;22.00;55.00;;;;;;5132928;28;20204;-92
2022/05/03 10:25:54;;;;;;;16.20;12.13;;;22.10;54.50;;;;;;5134611;28;20185;-93
2022/05/03 10:28:24;;;;;;;16.07;12.50;;;22.10;53.70;;;;;;5135812;28;20235;-92
2022/05/03 10:31:08;;;;;;;18.97;12.57;;;22.20;53.80;;;;;;5140981;28;20244;-93
2022/05/03 10:33:41;;;;;;;14.00;11.73;;;22.30;53.40;;;;;;5135140;28;20212;-92
2022/05/03 10:36:43;;;;;;;14.50;11.77;;;22.30;53.90;;;;;;5136498;28;20549;-93
2022/05/03 10:42:26;;;;;;;17.00;11.57;;;22.40;53.50;;;;;;5131899;28;20197;-90
2022/05/03 10:45:30;;;;;;;14.67;10.73;;;22.50;54.10;;;;;;5133121;28;20236;-94
2022/05/03 10:48:02;;;;;;;15.83;12.00;;;22.50;53.00;;;;;;5133418;28;20199;-96
2022/05/03 10:50:33;;;;;;;17.47;12.60;;;22.50;53.60;;;;;;5125367;28;20226;-95
2022/05/03 10:53:20;;;;;;;20.07;12.57;;;22.60;53.30;;;;;;5129878;28;20292;-93
2022/05/03 10:56:21;;;;;;;23.17;13.27;;;22.70;53.00;;;;;;5132734;28;20254;-94
2022/05/03 10:59:05;;;;;;;21.17;13.80;;;22.80;52.90;;;;;;5131819;28;20316;-94
2022/05/03 11:01:33;;;;;;;20.10;12.80;;;22.80;52.00;;;;;;5115616;28;20228;-93
2022/05/03 11:04:11;;;;;;;20.50;12.70;;;22.90;53.20;;;;;;5118612;28;20213;-91
2022/05/03 11:06:44;;;;;;;17.73;12.57;;;23.00;52.00;;;;;;5130577;28;20236;-95
2022/05/03 11:09:15;;;;;;;19.63;12.37;;;23.10;52.70;;;;;;5133686;28;20194;-94
2022/05/03 11:11:54;;;;;;;20.30;13.97;;;23.10;52.80;;;;;;5135724;28;20603;-95
2022/05/03 11:17:44;;;;;;;20.10;12.50;;;23.30;51.70;;;;;;5106095;27;20253;-96
2022/05/03 11:20:12;;;;;;;24.97;13.20;;;23.50;51.80;;;;;;5140061;27;20200;-95
2022/05/03 11:22:39;;;;;;;18.33;12.43;;;23.50;51.60;;;;;;5153819;27;20210;-92
2022/05/03 11:25:12;;;;;;;19.13;12.93;;;23.50;51.70;;;;;;5152546;27;20197;-96
2022/05/03 11:27:40;;;;;;;21.70;13.73;;;23.60;51.90;;;;;;5159718;27;20200;-95
2022/05/03 11:30:11;;;;;;;15.07;10.93;;;23.60;51.90;;;;;;5143615;27;20190;-95
2022/05/03 11:32:46;;;;;;;15.00;12.40;;;23.70;51.70;;;;;;5140833;27;20198;-93
2022/05/03 11:35:17;;;;;;;20.87;14.27;;;23.80;51.20;;;;;;5123536;27;20266;-90
2022/05/03 11:37:52;;;;;;;18.47;14.03;;;23.90;51.40;;;;;;5133788;27;20242;-94
2022/05/03 11:40:24;;;;;;;19.37;12.90;;;24.00;51.00;;;;;;5128101;27;20205;-94
2022/05/03 11:42:52;;;;;;;20.67;12.67;;;24.00;50.50;;;;;;5128027;27;20231;-92
2022/05/03 11:45:56;;;;;;;21.50;15.33;;;24.10;51.00;;;;;;5134967;27;20294;-95
2022/05/03 11:48:25;;;;;;;35.57;16.37;;;24.10;50.50;;;;;;5121918;27;20721;-93
2022/05/03 11:56:26;;;;;;;17.30;12.87;;;24.30;50.80;;;;;;5151542;27;20241;-94
2022/05/03 11:58:54;;;;;;;14.43;11.20;;;24.40;50.60;;;;;;5137891;27;20313;-94
2022/05/03 12:01:23;;;;;;;21.03;13.27;;;24.40;50.30;;;;;;5146541;27;20630;-92
2022/05/03 12:04:20;;;;;;;17.57;13.23;;;24.40;50.30;;;;;;5137336;27;20201;-94
2022/05/03 12:06:50;;;;;;;17.47;12.47;;;24.40;50.20;;;;;;5136222;27;20214;-94
2022/05/03 12:09:19;;;;;;;19.13;13.33;;;24.50;50.30;;;;;;5136582;27;20198;-93
2022/05/03 12:14:42;;;;;;;22.20;12.63;;;24.50;50.10;;;;;;5126217;27;20204;-95
2022/05/03 12:17:11;;;;;;;24.77;13.90;;;24.50;50.40;;;;;;5116139;27;20221;-94
2022/05/03 12:22:36;;;;;;;21.10;13.57;;;24.60;50.40;;;;;;5133402;27;20245;-96
2022/05/03 12:25:04;;;;;;;22.60;14.43;;;24.60;49.20;;;;;;5135191;27;20193;-93
2022/05/03 12:27:34;;;;;;;16.87;11.83;;;24.70;49.80;;;;;;5136545;27;20193;-94
2022/05/03 12:30:10;;;;;;;22.57;12.53;;;24.70;50.00;;;;;;5134859;27;20210;-92
2022/05/03 12:35:59;;;;;;;22.60;13.47;;;24.70;49.90;;;;;;5099544;27;20228;-96
2022/05/03 12:38:47;;;;;;;22.27;13.43;;;24.70;49.90;;;;;;5130044;27;20221;-93
2022/05/03 12:42:04;;;;;;;19.00;12.73;;;24.70;49.20;;;;;;5133543;27;20699;-92
2022/05/03 12:44:32;;;;;;;23.93;15.10;;;24.70;49.60;;;;;;5124641;27;20212;-93
2022/05/03 12:47:04;;;;;;;20.23;13.63;;;24.70;49.70;;;;;;5135084;27;20244;-92
2022/05/03 12:49:31;;;;;;;427.03;79.23;;;24.60;49.40;;;;;;5133435;27;20731;-95
2022/05/03 12:52:01;;;;;;;67.03;21.90;;;24.60;49.40;;;;;;5131143;27;20205;-96
2022/05/03 12:54:29;;;;;;;36.43;18.13;;;24.60;49.50;;;;;;5131441;27;20205;-92
2022/05/03 13:00:25;;;;;;;17.47;13.00;;;24.50;48.90;;;;;;5119944;27;20212;-95
2022/05/03 13:03:00;;;;;;;20.13;13.57;;;24.40;49.60;;;;;;5132613;27;20583;-93
2022/05/03 13:05:33;;;;;;;22.17;12.30;;;24.40;49.70;;;;;;5134182;27;20653;-94
2022/05/03 13:08:00;;;;;;;20.53;12.70;;;24.40;50.00;;;;;;5132889;27;20570;-93
2022/05/03 13:10:35;;;;;;;22.00;12.90;;;24.40;50.20;;;;;;5133819;27;20224;-95
2022/05/03 13:13:04;;;;;;;19.10;12.33;;;24.40;49.80;;;;;;5122000;27;20227;-92
2022/05/03 13:15:31;;;;;;;20.83;12.17;;;24.40;49.80;;;;;;5135445;27;20217;-96
2022/05/03 13:18:00;;;;;;;18.00;11.70;;;24.30;49.60;;;;;;5131710;27;20202;-92
2022/05/03 13:20:50;;;;;;;23.70;11.70;;;24.40;49.60;;;;;;5131683;27;20198;-93
2022/05/03 13:23:18;;;;;;;17.30;10.73;;;24.40;49.50;;;;;;5132401;27;20236;-92
2022/05/03 13:29:12;;;;;;;18.07;12.07;;;24.40;49.60;;;;;;5106458;27;20248;-95
2022/05/03 13:31:39;;;;;;;15.63;10.53;;;24.30;49.00;;;;;;5129347;27;20224;-95
2022/05/03 13:34:08;;;;;;;19.00;10.83;;;24.30;49.20;;;;;;5132846;27;20672;-95
2022/05/03 13:42:08;;;;;;;15.07;10.40;;;24.10;49.10;;;;;;5133317;27;20219;-93
2022/05/03 13:44:37;;;;;;;20.30;11.60;;;23.90;48.80;;;;;;5133367;27;20220;-95
2022/05/03 13:47:08;;;;;;;20.77;11.43;;;23.80;49.00;;;;;;5131796;27;20239;-91
2022/05/03 13:49:35;;;;;;;14.47;9.97;;;23.60;49.20;;;;;;5133140;27;20201;-94
2022/05/03 13:52:06;;;;;;;20.53;9.47;;;23.50;49.50;;;;;;5132861;27;20202;-96
2022/05/03 13:54:35;;;;;;;16.80;10.60;;;23.30;49.50;;;;;;5130275;27;20252;-95
2022/05/03 13:57:08;;;;;;;18.07;9.27;;;23.30;50.00;;;;;;5129002;27;20257;-96
2022/05/03 13:59:37;;;;;;;15.93;10.57;;;23.10;50.00;;;;;;5132949;27;20324;-93
2022/05/03 14:02:07;;;;;;;14.30;9.73;;;23.10;50.30;;;;;;5130911;27;20642;-92
2022/05/03 14:07:38;;;;;;;12.70;9.63;;;22.80;50.10;;;;;;5128384;27;20290;-95
2022/05/03 14:10:06;;;;;;;15.97;10.03;;;22.80;50.30;;;;;;5131707;27;20204;-94
2022/05/03 14:12:34;;;;;;;12.63;8.33;;;22.60;50.30;;;;;;5134293;27;20217;-94
2022/05/03 14:15:06;;;;;;;19.60;9.53;;;22.50;50.20;;;;;;5132228;27;20240;-94
2022/05/03 14:17:33;;;;;;;15.77;9.87;;;22.30;50.30;;;;;;5110767;28;20211;-96
2022/05/03 14:20:10;;;;;;;17.70;8.87;;;22.20;50.60;;;;;;5130628;28;20230;-95
2022/05/03 14:22:46;;;;;;;13.53;8.30;;;22.20;50.70;;;;;;5131547;28;20201;-94
2022/05/03 14:25:14;;;;;;;20.50;10.20;;;22.00;50.80;;;;;;5128798;28;20197;-93
2022/05/03 14:27:43;;;;;;;24.73;8.70;;;21.90;50.70;;;;;;5129005;28;20202;-95
2022/05/03 14:30:12;;;;;;;12.73;8.67;;;21.80;50.60;;;;;;5132011;28;20467;-94
2022/05/03 14:32:41;;;;;;;17.80;8.70;;;21.80;50.80;;;;;;5132713;28;20201;-94
2022/05/03 14:35:10;;;;;;;14.50;7.87;;;21.70;51.10;;;;;;5131136;28;20228;-91